sensor_id;sensor_type;location;lat;lon;timestamp;P1;durP1;ratioP1;P2;durP2;ratioP2
13291;SDS011;6714;53.056;8.690;2023-10-09T00:03:00;3.07;;;1.93;;
13291;SDS011;6714;53.056;8.690;2023-10-09T00:05:43;3.90;;;2.20;;
13291;SDS011;6714;53.056;8.690;2023-10-09T00:08:27;4.13;;;2.13;;
13291;SDS011;6714;53.056;8.690;2023-10-09T00:11:13;3.90;;;2.30;;
13291;SDS011;6714;53.056;8.690;2023-10-09T00:13:56;4.67;;;2.40;;
13291;SDS011;6714;53.056;8.690;2023-10-09T00:16:38;2.30;;;2.00;;
13291;SDS011;6714;53.056;8.690;2023-10-09T00:19:27;2.90;;;1.77;;
13291;SDS011;6714;53.056;8.690;2023-10-09T00:22:13;4.30;;;2.20;;
13291;SDS011;6714;53.056;8.690;2023-10-09T00:25:06;5.97;;;2.43;;
13291;SDS011;6714;53.056;8.690;2023-10-09T00:27:56;3.50;;;2.17;;
13291;SDS011;6714;53.056;8.690;2023-10-09T00:30:40;3.07;;;2.47;;
13291;SDS011;6714;53.056;8.690;2023-10-09T00:33:22;3.93;;;2.00;;
13291;SDS011;6714;53.056;8.690;2023-10-09T00:36:05;3.17;;;2.03;;
13291;SDS011;6714;53.056;8.690;2023-10-09T00:38:50;2.17;;;1.90;;
13291;SDS011;6714;53.056;8.690;2023-10-09T00:41:32;3.40;;;2.03;;
13291;SDS011;6714;53.056;8.690;2023-10-09T00:44:16;3.17;;;2.20;;
13291;SDS011;6714;53.056;8.690;2023-10-09T00:46:59;3.57;;;2.30;;
13291;SDS011;6714;53.056;8.690;2023-10-09T00:49:51;3.30;;;2.20;;
13291;SDS011;6714;53.056;8.690;2023-10-09T00:52:39;2.57;;;2.20;;
13291;SDS011;6714;53.056;8.690;2023-10-09T00:55:24;4.03;;;2.27;;
13291;SDS011;6714;53.056;8.690;2023-10-09T00:58:18;2.53;;;2.10;;
13291;SDS011;6714;53.056;8.690;2023-10-09T01:01:05;4.27;;;2.47;;
13291;SDS011;6714;53.056;8.690;2023-10-09T01:03:56;6.60;;;2.40;;
13291;SDS011;6714;53.056;8.690;2023-10-09T01:06:40;4.37;;;2.20;;
13291;SDS011;6714;53.056;8.690;2023-10-09T01:09:24;2.67;;;2.00;;
13291;SDS011;6714;53.056;8.690;2023-10-09T01:12:08;2.90;;;2.07;;
13291;SDS011;6714;53.056;8.690;2023-10-09T01:14:56;4.53;;;2.20;;
13291;SDS011;6714;53.056;8.690;2023-10-09T01:17:41;4.43;;;2.03;;
13291;SDS011;6714;53.056;8.690;2023-10-09T01:20:25;4.40;;;2.30;;
13291;SDS011;6714;53.056;8.690;2023-10-09T01:23:14;5.77;;;2.30;;
13291;SDS011;6714;53.056;8.690;2023-10-09T01:25:56;2.30;;;1.93;;
13291;SDS011;6714;53.056;8.690;2023-10-09T01:28:38;2.10;;;1.90;;
13291;SDS011;6714;53.056;8.690;2023-10-09T01:31:21;3.50;;;2.10;;
13291;SDS011;6714;53.056;8.690;2023-10-09T01:34:08;2.00;;;1.90;;
13291;SDS011;6714;53.056;8.690;2023-10-09T01:36:52;4.00;;;2.20;;
13291;SDS011;6714;53.056;8.690;2023-10-09T01:39:37;3.30;;;2.37;;
13291;SDS011;6714;53.056;8.690;2023-10-09T01:42:21;3.40;;;2.23;;
13291;SDS011;6714;53.056;8.690;2023-10-09T01:45:14;4.97;;;2.33;;
13291;SDS011;6714;53.056;8.690;2023-10-09T01:48:06;3.97;;;2.40;;
13291;SDS011;6714;53.056;8.690;2023-10-09T01:50:49;4.90;;;2.20;;
13291;SDS011;6714;53.056;8.690;2023-10-09T01:53:31;2.83;;;2.07;;
13291;SDS011;6714;53.056;8.690;2023-10-09T01:56:19;2.93;;;2.47;;
13291;SDS011;6714;53.056;8.690;2023-10-09T01:59:01;3.60;;;2.50;;
13291;SDS011;6714;53.056;8.690;2023-10-09T02:01:45;2.50;;;2.30;;
13291;SDS011;6714;53.056;8.690;2023-10-09T02:04:28;3.37;;;2.30;;
13291;SDS011;6714;53.056;8.690;2023-10-09T02:07:10;2.87;;;2.30;;
13291;SDS011;6714;53.056;8.690;2023-10-09T02:09:54;4.07;;;2.27;;
13291;SDS011;6714;53.056;8.690;2023-10-09T02:12:37;3.47;;;2.10;;
13291;SDS011;6714;53.056;8.690;2023-10-09T02:15:21;1.80;;;1.70;;
13291;SDS011;6714;53.056;8.690;2023-10-09T02:18:24;3.67;;;2.10;;
13291;SDS011;6714;53.056;8.690;2023-10-09T02:21:19;2.83;;;2.33;;
13291;SDS011;6714;53.056;8.690;2023-10-09T02:24:13;4.23;;;2.40;;
13291;SDS011;6714;53.056;8.690;2023-10-09T02:27:09;4.30;;;2.20;;
13291;SDS011;6714;53.056;8.690;2023-10-09T02:29:54;2.33;;;2.00;;
13291;SDS011;6714;53.056;8.690;2023-10-09T02:32:38;3.53;;;2.10;;
13291;SDS011;6714;53.056;8.690;2023-10-09T02:35:20;3.17;;;1.90;;
13291;SDS011;6714;53.056;8.690;2023-10-09T02:38:11;2.93;;;1.70;;
13291;SDS011;6714;53.056;8.690;2023-10-09T02:40:57;2.00;;;1.87;;
13291;SDS011;6714;53.056;8.690;2023-10-09T02:43:58;2.53;;;1.90;;
13291;SDS011;6714;53.056;8.690;2023-10-09T02:46:51;3.60;;;2.67;;
13291;SDS011;6714;53.056;8.690;2023-10-09T02:49:38;3.47;;;2.43;;
13291;SDS011;6714;53.056;8.690;2023-10-09T02:52:20;2.83;;;2.20;;
13291;SDS011;6714;53.056;8.690;2023-10-09T02:55:05;3.30;;;2.37;;
13291;SDS011;6714;53.056;8.690;2023-10-09T02:57:52;2.67;;;2.47;;
13291;SDS011;6714;53.056;8.690;2023-10-09T03:00:45;3.23;;;2.80;;
13291;SDS011;6714;53.056;8.690;2023-10-09T03:03:30;4.20;;;3.00;;
13291;SDS011;6714;53.056;8.690;2023-10-09T03:06:15;3.23;;;2.60;;
13291;SDS011;6714;53.056;8.690;2023-10-09T03:09:05;2.63;;;2.43;;
13291;SDS011;6714;53.056;8.690;2023-10-09T03:11:57;5.23;;;2.70;;
13291;SDS011;6714;53.056;8.690;2023-10-09T03:14:42;5.93;;;3.20;;
13291;SDS011;6714;53.056;8.690;2023-10-09T03:17:24;3.27;;;2.90;;
13291;SDS011;6714;53.056;8.690;2023-10-09T03:20:09;3.80;;;2.40;;
13291;SDS011;6714;53.056;8.690;2023-10-09T03:22:54;3.37;;;2.70;;
13291;SDS011;6714;53.056;8.690;2023-10-09T03:25:36;2.50;;;2.30;;
13291;SDS011;6714;53.056;8.690;2023-10-09T03:28:18;2.97;;;2.47;;
13291;SDS011;6714;53.056;8.690;2023-10-09T03:31:00;2.90;;;2.33;;
13291;SDS011;6714;53.056;8.690;2023-10-09T03:33:42;2.70;;;2.40;;
13291;SDS011;6714;53.056;8.690;2023-10-09T03:36:26;4.37;;;2.70;;
13291;SDS011;6714;53.056;8.690;2023-10-09T03:39:10;2.20;;;2.00;;
13291;SDS011;6714;53.056;8.690;2023-10-09T03:42:04;2.80;;;2.57;;
13291;SDS011;6714;53.056;8.690;2023-10-09T03:44:51;4.37;;;2.90;;
13291;SDS011;6714;53.056;8.690;2023-10-09T03:47:33;2.97;;;2.40;;
13291;SDS011;6714;53.056;8.690;2023-10-09T03:50:16;6.10;;;3.33;;
13291;SDS011;6714;53.056;8.690;2023-10-09T03:53:08;3.27;;;2.47;;
13291;SDS011;6714;53.056;8.690;2023-10-09T03:55:52;3.97;;;2.67;;
13291;SDS011;6714;53.056;8.690;2023-10-09T03:58:34;3.10;;;2.80;;
13291;SDS011;6714;53.056;8.690;2023-10-09T04:01:18;5.00;;;2.90;;
13291;SDS011;6714;53.056;8.690;2023-10-09T04:04:04;5.57;;;3.20;;
13291;SDS011;6714;53.056;8.690;2023-10-09T04:06:47;3.50;;;2.57;;
13291;SDS011;6714;53.056;8.690;2023-10-09T04:09:30;4.53;;;3.30;;
13291;SDS011;6714;53.056;8.690;2023-10-09T04:12:19;3.27;;;2.67;;
13291;SDS011;6714;53.056;8.690;2023-10-09T04:15:05;3.30;;;3.00;;
13291;SDS011;6714;53.056;8.690;2023-10-09T04:17:55;3.57;;;2.67;;
13291;SDS011;6714;53.056;8.690;2023-10-09T04:20:37;3.53;;;3.00;;
13291;SDS011;6714;53.056;8.690;2023-10-09T04:23:36;3.97;;;3.27;;
13291;SDS011;6714;53.056;8.690;2023-10-09T04:26:40;5.40;;;3.60;;
13291;SDS011;6714;53.056;8.690;2023-10-09T04:29:24;3.50;;;3.20;;
13291;SDS011;6714;53.056;8.690;2023-10-09T04:32:18;5.33;;;3.47;;
13291;SDS011;6714;53.056;8.690;2023-10-09T04:35:05;4.83;;;3.03;;
13291;SDS011;6714;53.056;8.690;2023-10-09T04:38:03;5.93;;;3.43;;
13291;SDS011;6714;53.056;8.690;2023-10-09T04:40:46;5.23;;;3.20;;
13291;SDS011;6714;53.056;8.690;2023-10-09T04:43:40;5.57;;;3.53;;
13291;SDS011;6714;53.056;8.690;2023-10-09T04:46:24;5.83;;;4.27;;
13291;SDS011;6714;53.056;8.690;2023-10-09T04:49:06;5.80;;;4.37;;
13291;SDS011;6714;53.056;8.690;2023-10-09T04:52:07;5.47;;;3.73;;
13291;SDS011;6714;53.056;8.690;2023-10-09T04:54:59;6.00;;;3.80;;
13291;SDS011;6714;53.056;8.690;2023-10-09T04:57:52;5.60;;;4.33;;
13291;SDS011;6714;53.056;8.690;2023-10-09T05:00:50;5.70;;;3.70;;
13291;SDS011;6714;53.056;8.690;2023-10-09T05:03:44;6.37;;;4.73;;
13291;SDS011;6714;53.056;8.690;2023-10-09T05:06:37;6.33;;;4.50;;
13291;SDS011;6714;53.056;8.690;2023-10-09T05:09:34;7.50;;;4.80;;
13291;SDS011;6714;53.056;8.690;2023-10-09T05:12:35;6.33;;;4.67;;
13291;SDS011;6714;53.056;8.690;2023-10-09T05:15:26;7.57;;;5.43;;
13291;SDS011;6714;53.056;8.690;2023-10-09T05:18:11;10.87;;;6.40;;
13291;SDS011;6714;53.056;8.690;2023-10-09T05:20:56;9.97;;;6.50;;
13291;SDS011;6714;53.056;8.690;2023-10-09T05:24:00;11.23;;;7.73;;
13291;SDS011;6714;53.056;8.690;2023-10-09T05:26:59;11.33;;;7.00;;
13291;SDS011;6714;53.056;8.690;2023-10-09T05:29:57;11.80;;;6.40;;
13291;SDS011;6714;53.056;8.690;2023-10-09T05:32:53;11.27;;;6.30;;
13291;SDS011;6714;53.056;8.690;2023-10-09T05:36:07;8.00;;;5.50;;
13291;SDS011;6714;53.056;8.690;2023-10-09T05:39:06;15.10;;;9.37;;
13291;SDS011;6714;53.056;8.690;2023-10-09T05:42:02;10.03;;;7.00;;
13291;SDS011;6714;53.056;8.690;2023-10-09T05:44:49;10.87;;;6.93;;
13291;SDS011;6714;53.056;8.690;2023-10-09T05:47:52;12.73;;;8.50;;
13291;SDS011;6714;53.056;8.690;2023-10-09T05:50:36;10.63;;;6.53;;
13291;SDS011;6714;53.056;8.690;2023-10-09T05:53:19;13.77;;;9.50;;
13291;SDS011;6714;53.056;8.690;2023-10-09T05:56:27;13.90;;;8.27;;
13291;SDS011;6714;53.056;8.690;2023-10-09T05:59:23;13.97;;;9.90;;
13291;SDS011;6714;53.056;8.690;2023-10-09T06:02:25;10.23;;;6.97;;
13291;SDS011;6714;53.056;8.690;2023-10-09T06:05:27;14.03;;;8.90;;
13291;SDS011;6714;53.056;8.690;2023-10-09T06:08:31;15.07;;;10.03;;
13291;SDS011;6714;53.056;8.690;2023-10-09T06:11:48;11.53;;;7.83;;
13291;SDS011;6714;53.056;8.690;2023-10-09T06:14:35;12.47;;;7.47;;
13291;SDS011;6714;53.056;8.690;2023-10-09T06:17:29;11.57;;;8.13;;
13291;SDS011;6714;53.056;8.690;2023-10-09T06:20:24;14.00;;;9.30;;
13291;SDS011;6714;53.056;8.690;2023-10-09T06:23:44;12.90;;;8.77;;
13291;SDS011;6714;53.056;8.690;2023-10-09T06:26:49;12.07;;;8.30;;
13291;SDS011;6714;53.056;8.690;2023-10-09T06:29:52;19.83;;;12.80;;
13291;SDS011;6714;53.056;8.690;2023-10-09T06:32:54;11.50;;;7.47;;
13291;SDS011;6714;53.056;8.690;2023-10-09T06:35:45;16.50;;;11.40;;
13291;SDS011;6714;53.056;8.690;2023-10-09T06:38:34;15.60;;;10.67;;
13291;SDS011;6714;53.056;8.690;2023-10-09T06:41:33;21.67;;;13.97;;
13291;SDS011;6714;53.056;8.690;2023-10-09T06:44:26;16.63;;;11.77;;
13291;SDS011;6714;53.056;8.690;2023-10-09T06:47:22;7.97;;;6.30;;
13291;SDS011;6714;53.056;8.690;2023-10-09T06:50:05;13.63;;;10.40;;
13291;SDS011;6714;53.056;8.690;2023-10-09T06:53:04;25.07;;;16.13;;
13291;SDS011;6714;53.056;8.690;2023-10-09T06:56:00;24.37;;;15.77;;
13291;SDS011;6714;53.056;8.690;2023-10-09T06:58:46;24.13;;;14.40;;
13291;SDS011;6714;53.056;8.690;2023-10-09T07:01:28;23.60;;;16.13;;
13291;SDS011;6714;53.056;8.690;2023-10-09T07:04:10;18.10;;;11.93;;
13291;SDS011;6714;53.056;8.690;2023-10-09T07:06:59;16.60;;;11.37;;
13291;SDS011;6714;53.056;8.690;2023-10-09T07:09:47;17.27;;;12.57;;
13291;SDS011;6714;53.056;8.690;2023-10-09T07:12:43;21.53;;;14.03;;
13291;SDS011;6714;53.056;8.690;2023-10-09T07:15:34;17.43;;;12.87;;
13291;SDS011;6714;53.056;8.690;2023-10-09T07:18:34;24.23;;;15.73;;
13291;SDS011;6714;53.056;8.690;2023-10-09T07:21:29;11.03;;;8.03;;
13291;SDS011;6714;53.056;8.690;2023-10-09T07:24:11;15.73;;;11.73;;
13291;SDS011;6714;53.056;8.690;2023-10-09T07:26:57;26.30;;;15.83;;
13291;SDS011;6714;53.056;8.690;2023-10-09T07:29:46;12.30;;;8.23;;
13291;SDS011;6714;53.056;8.690;2023-10-09T07:32:30;18.77;;;12.83;;
13291;SDS011;6714;53.056;8.690;2023-10-09T07:35:12;19.30;;;11.87;;
13291;SDS011;6714;53.056;8.690;2023-10-09T07:38:16;20.17;;;14.07;;
13291;SDS011;6714;53.056;8.690;2023-10-09T07:40:59;21.37;;;15.70;;
13291;SDS011;6714;53.056;8.690;2023-10-09T07:44:04;26.87;;;17.77;;
13291;SDS011;6714;53.056;8.690;2023-10-09T07:47:14;27.87;;;18.07;;
13291;SDS011;6714;53.056;8.690;2023-10-09T07:50:01;21.53;;;15.57;;
13291;SDS011;6714;53.056;8.690;2023-10-09T07:52:44;12.73;;;9.47;;
13291;SDS011;6714;53.056;8.690;2023-10-09T07:55:26;30.40;;;20.50;;
13291;SDS011;6714;53.056;8.690;2023-10-09T07:58:19;20.47;;;14.43;;
13291;SDS011;6714;53.056;8.690;2023-10-09T08:01:05;21.17;;;14.90;;
13291;SDS011;6714;53.056;8.690;2023-10-09T08:03:48;19.33;;;13.03;;
13291;SDS011;6714;53.056;8.690;2023-10-09T08:06:38;21.23;;;15.27;;
13291;SDS011;6714;53.056;8.690;2023-10-09T08:09:22;23.53;;;17.30;;
13291;SDS011;6714;53.056;8.690;2023-10-09T08:12:27;21.50;;;14.57;;
13291;SDS011;6714;53.056;8.690;2023-10-09T08:15:38;10.70;;;7.40;;
13291;SDS011;6714;53.056;8.690;2023-10-09T08:18:32;14.73;;;9.87;;
13291;SDS011;6714;53.056;8.690;2023-10-09T08:21:24;19.57;;;13.20;;
13291;SDS011;6714;53.056;8.690;2023-10-09T08:24:22;22.17;;;15.00;;
13291;SDS011;6714;53.056;8.690;2023-10-09T08:27:21;20.63;;;12.83;;
13291;SDS011;6714;53.056;8.690;2023-10-09T08:30:26;16.37;;;11.87;;
13291;SDS011;6714;53.056;8.690;2023-10-09T08:33:24;23.97;;;16.57;;
13291;SDS011;6714;53.056;8.690;2023-10-09T08:36:21;29.90;;;18.33;;
13291;SDS011;6714;53.056;8.690;2023-10-09T08:39:06;22.83;;;15.13;;
13291;SDS011;6714;53.056;8.690;2023-10-09T08:41:59;21.33;;;13.77;;
13291;SDS011;6714;53.056;8.690;2023-10-09T08:44:43;12.23;;;9.73;;
13291;SDS011;6714;53.056;8.690;2023-10-09T08:47:29;17.67;;;12.50;;
13291;SDS011;6714;53.056;8.690;2023-10-09T08:50:13;23.43;;;15.00;;
13291;SDS011;6714;53.056;8.690;2023-10-09T08:52:55;20.90;;;13.37;;
13291;SDS011;6714;53.056;8.690;2023-10-09T08:55:38;15.90;;;11.73;;
13291;SDS011;6714;53.056;8.690;2023-10-09T08:58:23;22.93;;;14.93;;
13291;SDS011;6714;53.056;8.690;2023-10-09T09:01:06;24.70;;;16.77;;
13291;SDS011;6714;53.056;8.690;2023-10-09T09:03:49;18.57;;;12.30;;
13291;SDS011;6714;53.056;8.690;2023-10-09T09:06:38;22.73;;;14.70;;
13291;SDS011;6714;53.056;8.690;2023-10-09T09:09:21;18.47;;;13.20;;
13291;SDS011;6714;53.056;8.690;2023-10-09T09:12:04;18.60;;;13.13;;
13291;SDS011;6714;53.056;8.690;2023-10-09T09:14:50;24.87;;;16.10;;
13291;SDS011;6714;53.056;8.690;2023-10-09T09:17:33;16.40;;;11.60;;
13291;SDS011;6714;53.056;8.690;2023-10-09T09:20:20;18.67;;;13.60;;
13291;SDS011;6714;53.056;8.690;2023-10-09T09:23:17;12.00;;;8.90;;
13291;SDS011;6714;53.056;8.690;2023-10-09T09:26:03;10.00;;;7.70;;
13291;SDS011;6714;53.056;8.690;2023-10-09T09:28:51;20.63;;;12.83;;
13291;SDS011;6714;53.056;8.690;2023-10-09T09:31:36;17.37;;;11.27;;
13291;SDS011;6714;53.056;8.690;2023-10-09T09:34:22;14.57;;;9.93;;
13291;SDS011;6714;53.056;8.690;2023-10-09T09:37:09;20.87;;;12.23;;
13291;SDS011;6714;53.056;8.690;2023-10-09T09:39:54;22.00;;;14.60;;
13291;SDS011;6714;53.056;8.690;2023-10-09T09:42:36;15.33;;;11.00;;
13291;SDS011;6714;53.056;8.690;2023-10-09T09:45:25;18.47;;;13.17;;
13291;SDS011;6714;53.056;8.690;2023-10-09T09:48:10;17.83;;;12.07;;
13291;SDS011;6714;53.056;8.690;2023-10-09T09:50:56;19.00;;;12.53;;
13291;SDS011;6714;53.056;8.690;2023-10-09T09:53:38;22.30;;;13.93;;
13291;SDS011;6714;53.056;8.690;2023-10-09T09:56:20;10.97;;;8.50;;
13291;SDS011;6714;53.056;8.690;2023-10-09T09:59:06;15.47;;;11.83;;
13291;SDS011;6714;53.056;8.690;2023-10-09T10:01:55;10.83;;;8.77;;
13291;SDS011;6714;53.056;8.690;2023-10-09T10:04:40;15.53;;;11.50;;
13291;SDS011;6714;53.056;8.690;2023-10-09T10:07:24;10.10;;;7.30;;
13291;SDS011;6714;53.056;8.690;2023-10-09T10:13:13;13.33;;;10.23;;
13291;SDS011;6714;53.056;8.690;2023-10-09T10:16:06;13.07;;;8.83;;
13291;SDS011;6714;53.056;8.690;2023-10-09T10:18:55;14.33;;;10.30;;
13291;SDS011;6714;53.056;8.690;2023-10-09T10:22:05;9.83;;;7.67;;
13291;SDS011;6714;53.056;8.690;2023-10-09T10:25:07;11.23;;;8.73;;
13291;SDS011;6714;53.056;8.690;2023-10-09T10:28:19;15.50;;;11.37;;
13291;SDS011;6714;53.056;8.690;2023-10-09T10:31:16;11.00;;;7.20;;
13291;SDS011;6714;53.056;8.690;2023-10-09T10:34:04;13.43;;;9.43;;
13291;SDS011;6714;53.056;8.690;2023-10-09T10:36:51;12.70;;;8.57;;
13291;SDS011;6714;53.056;8.690;2023-10-09T10:39:40;13.10;;;9.33;;
13291;SDS011;6714;53.056;8.690;2023-10-09T10:42:31;12.10;;;8.20;;
13291;SDS011;6714;53.056;8.690;2023-10-09T10:45:18;12.77;;;7.93;;
13291;SDS011;6714;53.056;8.690;2023-10-09T10:48:14;14.80;;;9.23;;
13291;SDS011;6714;53.056;8.690;2023-10-09T10:51:03;11.90;;;9.90;;
13291;SDS011;6714;53.056;8.690;2023-10-09T10:53:51;12.33;;;9.07;;
13291;SDS011;6714;53.056;8.690;2023-10-09T10:56:57;10.10;;;7.90;;
13291;SDS011;6714;53.056;8.690;2023-10-09T10:59:40;13.03;;;8.47;;
13291;SDS011;6714;53.056;8.690;2023-10-09T11:02:22;15.93;;;11.87;;
13291;SDS011;6714;53.056;8.690;2023-10-09T11:05:08;12.27;;;8.50;;
13291;SDS011;6714;53.056;8.690;2023-10-09T11:08:05;13.30;;;9.63;;
13291;SDS011;6714;53.056;8.690;2023-10-09T11:10:51;12.67;;;9.43;;
13291;SDS011;6714;53.056;8.690;2023-10-09T11:13:35;14.23;;;8.73;;
13291;SDS011;6714;53.056;8.690;2023-10-09T11:16:32;10.03;;;7.77;;
13291;SDS011;6714;53.056;8.690;2023-10-09T11:19:27;9.77;;;7.17;;
13291;SDS011;6714;53.056;8.690;2023-10-09T11:22:13;9.63;;;7.03;;
13291;SDS011;6714;53.056;8.690;2023-10-09T11:25:12;12.43;;;7.07;;
13291;SDS011;6714;53.056;8.690;2023-10-09T11:27:58;13.03;;;8.17;;
13291;SDS011;6714;53.056;8.690;2023-10-09T11:30:58;7.50;;;5.90;;
13291;SDS011;6714;53.056;8.690;2023-10-09T11:33:48;11.37;;;9.07;;
13291;SDS011;6714;53.056;8.690;2023-10-09T11:36:33;8.77;;;6.77;;
13291;SDS011;6714;53.056;8.690;2023-10-09T11:39:23;7.87;;;6.07;;
13291;SDS011;6714;53.056;8.690;2023-10-09T11:42:14;7.67;;;5.53;;
13291;SDS011;6714;53.056;8.690;2023-10-09T11:45:19;8.77;;;5.87;;
13291;SDS011;6714;53.056;8.690;2023-10-09T11:51:11;5.23;;;4.67;;
13291;SDS011;6714;53.056;8.690;2023-10-09T11:53:59;7.80;;;5.53;;
13291;SDS011;6714;53.056;8.690;2023-10-09T11:56:41;5.00;;;4.50;;
13291;SDS011;6714;53.056;8.690;2023-10-09T11:59:22;8.97;;;6.30;;
13291;SDS011;6714;53.056;8.690;2023-10-09T12:02:05;5.30;;;4.23;;
13291;SDS011;6714;53.056;8.690;2023-10-09T12:04:52;3.97;;;3.57;;
13291;SDS011;6714;53.056;8.690;2023-10-09T12:07:39;6.17;;;4.70;;
13291;SDS011;6714;53.056;8.690;2023-10-09T12:10:22;6.17;;;4.53;;
13291;SDS011;6714;53.056;8.690;2023-10-09T12:13:06;6.93;;;4.20;;
13291;SDS011;6714;53.056;8.690;2023-10-09T12:15:49;5.27;;;4.03;;
13291;SDS011;6714;53.056;8.690;2023-10-09T12:18:32;6.13;;;4.03;;
13291;SDS011;6714;53.056;8.690;2023-10-09T12:21:15;4.23;;;3.43;;
13291;SDS011;6714;53.056;8.690;2023-10-09T12:23:58;6.27;;;3.50;;
13291;SDS011;6714;53.056;8.690;2023-10-09T12:26:41;4.07;;;3.30;;
13291;SDS011;6714;53.056;8.690;2023-10-09T12:29:24;3.57;;;3.23;;
13291;SDS011;6714;53.056;8.690;2023-10-09T12:32:10;3.57;;;3.20;;
13291;SDS011;6714;53.056;8.690;2023-10-09T12:34:52;4.73;;;3.00;;
13291;SDS011;6714;53.056;8.690;2023-10-09T12:37:36;5.40;;;3.53;;
13291;SDS011;6714;53.056;8.690;2023-10-09T12:40:22;4.97;;;3.40;;
13291;SDS011;6714;53.056;8.690;2023-10-09T12:43:09;5.43;;;3.60;;
13291;SDS011;6714;53.056;8.690;2023-10-09T12:45:55;3.13;;;2.80;;
13291;SDS011;6714;53.056;8.690;2023-10-09T12:48:38;4.33;;;3.30;;
13291;SDS011;6714;53.056;8.690;2023-10-09T12:51:26;4.40;;;3.20;;
13291;SDS011;6714;53.056;8.690;2023-10-09T12:54:09;4.40;;;3.17;;
13291;SDS011;6714;53.056;8.690;2023-10-09T12:56:56;4.63;;;3.23;;
13291;SDS011;6714;53.056;8.690;2023-10-09T12:59:39;4.57;;;3.33;;
13291;SDS011;6714;53.056;8.690;2023-10-09T13:02:25;3.00;;;2.80;;
13291;SDS011;6714;53.056;8.690;2023-10-09T13:05:10;4.33;;;2.47;;
13291;SDS011;6714;53.056;8.690;2023-10-09T13:08:06;4.47;;;2.90;;
13291;SDS011;6714;53.056;8.690;2023-10-09T13:10:52;5.17;;;2.63;;
13291;SDS011;6714;53.056;8.690;2023-10-09T13:13:42;4.07;;;2.90;;
13291;SDS011;6714;53.056;8.690;2023-10-09T13:16:27;4.77;;;3.27;;
13291;SDS011;6714;53.056;8.690;2023-10-09T13:19:09;5.27;;;2.90;;
13291;SDS011;6714;53.056;8.690;2023-10-09T13:21:52;5.23;;;2.97;;
13291;SDS011;6714;53.056;8.690;2023-10-09T13:24:34;4.13;;;2.90;;
13291;SDS011;6714;53.056;8.690;2023-10-09T13:27:19;4.23;;;3.10;;
13291;SDS011;6714;53.056;8.690;2023-10-09T13:30:04;5.80;;;3.03;;
13291;SDS011;6714;53.056;8.690;2023-10-09T13:32:49;4.57;;;3.03;;
13291;SDS011;6714;53.056;8.690;2023-10-09T13:35:34;3.57;;;2.73;;
13291;SDS011;6714;53.056;8.690;2023-10-09T13:38:24;4.57;;;2.93;;
13291;SDS011;6714;53.056;8.690;2023-10-09T13:41:06;6.27;;;2.73;;
13291;SDS011;6714;53.056;8.690;2023-10-09T13:43:52;4.03;;;2.60;;
13291;SDS011;6714;53.056;8.690;2023-10-09T13:46:38;4.10;;;2.90;;
13291;SDS011;6714;53.056;8.690;2023-10-09T13:49:22;5.23;;;2.83;;
13291;SDS011;6714;53.056;8.690;2023-10-09T13:52:09;3.53;;;2.67;;
13291;SDS011;6714;53.056;8.690;2023-10-09T13:54:58;5.20;;;2.67;;
13291;SDS011;6714;53.056;8.690;2023-10-09T13:57:56;3.97;;;2.60;;
13291;SDS011;6714;53.056;8.690;2023-10-09T14:00:39;6.87;;;3.00;;
13291;SDS011;6714;53.056;8.690;2023-10-09T14:03:25;2.43;;;2.23;;
13291;SDS011;6714;53.056;8.690;2023-10-09T14:06:09;4.47;;;3.00;;
13291;SDS011;6714;53.056;8.690;2023-10-09T14:08:52;3.37;;;2.60;;
13291;SDS011;6714;53.056;8.690;2023-10-09T14:11:35;4.07;;;2.63;;
13291;SDS011;6714;53.056;8.690;2023-10-09T14:14:19;4.40;;;2.63;;
13291;SDS011;6714;53.056;8.690;2023-10-09T14:17:05;4.20;;;2.33;;
13291;SDS011;6714;53.056;8.690;2023-10-09T14:19:53;4.60;;;2.50;;
13291;SDS011;6714;53.056;8.690;2023-10-09T14:22:41;3.90;;;2.57;;
13291;SDS011;6714;53.056;8.690;2023-10-09T14:25:25;4.23;;;2.77;;
13291;SDS011;6714;53.056;8.690;2023-10-09T14:28:10;3.50;;;2.40;;
13291;SDS011;6714;53.056;8.690;2023-10-09T14:30:58;2.57;;;2.37;;
13291;SDS011;6714;53.056;8.690;2023-10-09T14:33:44;4.57;;;2.67;;
13291;SDS011;6714;53.056;8.690;2023-10-09T14:36:33;4.93;;;2.83;;
13291;SDS011;6714;53.056;8.690;2023-10-09T14:39:17;4.90;;;2.70;;
13291;SDS011;6714;53.056;8.690;2023-10-09T14:42:06;5.53;;;2.43;;
13291;SDS011;6714;53.056;8.690;2023-10-09T14:44:50;2.77;;;2.40;;
13291;SDS011;6714;53.056;8.690;2023-10-09T14:47:33;5.43;;;2.53;;
13291;SDS011;6714;53.056;8.690;2023-10-09T14:50:17;3.43;;;2.50;;
13291;SDS011;6714;53.056;8.690;2023-10-09T14:53:03;3.67;;;2.63;;
13291;SDS011;6714;53.056;8.690;2023-10-09T14:55:53;5.80;;;2.27;;
13291;SDS011;6714;53.056;8.690;2023-10-09T14:58:36;3.90;;;2.30;;
13291;SDS011;6714;53.056;8.690;2023-10-09T15:01:19;6.93;;;2.67;;
13291;SDS011;6714;53.056;8.690;2023-10-09T15:04:04;5.87;;;2.50;;
13291;SDS011;6714;53.056;8.690;2023-10-09T15:06:47;4.57;;;2.57;;
13291;SDS011;6714;53.056;8.690;2023-10-09T15:09:31;5.27;;;2.60;;
13291;SDS011;6714;53.056;8.690;2023-10-09T15:12:14;4.37;;;2.47;;
13291;SDS011;6714;53.056;8.690;2023-10-09T15:14:57;3.87;;;2.50;;
13291;SDS011;6714;53.056;8.690;2023-10-09T15:17:39;3.50;;;2.43;;
13291;SDS011;6714;53.056;8.690;2023-10-09T15:20:24;6.07;;;2.40;;
13291;SDS011;6714;53.056;8.690;2023-10-09T15:23:07;3.77;;;2.30;;
13291;SDS011;6714;53.056;8.690;2023-10-09T15:25:51;3.90;;;2.37;;
13291;SDS011;6714;53.056;8.690;2023-10-09T15:28:34;4.03;;;2.13;;
13291;SDS011;6714;53.056;8.690;2023-10-09T15:31:16;4.73;;;2.63;;
13291;SDS011;6714;53.056;8.690;2023-10-09T15:34:00;5.77;;;2.50;;
13291;SDS011;6714;53.056;8.690;2023-10-09T15:36:43;4.57;;;2.67;;
13291;SDS011;6714;53.056;8.690;2023-10-09T15:39:27;3.77;;;2.73;;
13291;SDS011;6714;53.056;8.690;2023-10-09T15:42:12;3.83;;;2.43;;
13291;SDS011;6714;53.056;8.690;2023-10-09T15:44:56;4.70;;;3.83;;
13291;SDS011;6714;53.056;8.690;2023-10-09T15:47:40;4.60;;;2.93;;
13291;SDS011;6714;53.056;8.690;2023-10-09T15:50:22;5.77;;;3.40;;
13291;SDS011;6714;53.056;8.690;2023-10-09T15:53:05;4.13;;;2.80;;
13291;SDS011;6714;53.056;8.690;2023-10-09T15:55:48;3.73;;;2.57;;
13291;SDS011;6714;53.056;8.690;2023-10-09T15:58:39;4.93;;;2.83;;
13291;SDS011;6714;53.056;8.690;2023-10-09T16:01:23;3.33;;;2.83;;
13291;SDS011;6714;53.056;8.690;2023-10-09T16:04:05;3.07;;;2.73;;
13291;SDS011;6714;53.056;8.690;2023-10-09T16:06:50;6.37;;;2.83;;
13291;SDS011;6714;53.056;8.690;2023-10-09T16:09:32;5.23;;;2.93;;
13291;SDS011;6714;53.056;8.690;2023-10-09T16:12:19;3.40;;;3.10;;
13291;SDS011;6714;53.056;8.690;2023-10-09T16:15:06;4.30;;;2.50;;
13291;SDS011;6714;53.056;8.690;2023-10-09T16:17:48;3.23;;;2.60;;
13291;SDS011;6714;53.056;8.690;2023-10-09T16:20:38;5.53;;;2.60;;
13291;SDS011;6714;53.056;8.690;2023-10-09T16:23:20;4.70;;;2.60;;
13291;SDS011;6714;53.056;8.690;2023-10-09T16:26:03;5.63;;;3.40;;
13291;SDS011;6714;53.056;8.690;2023-10-09T16:28:47;5.03;;;2.63;;
13291;SDS011;6714;53.056;8.690;2023-10-09T16:31:33;4.57;;;2.70;;
13291;SDS011;6714;53.056;8.690;2023-10-09T16:34:16;2.47;;;2.20;;
13291;SDS011;6714;53.056;8.690;2023-10-09T16:36:58;4.93;;;2.70;;
13291;SDS011;6714;53.056;8.690;2023-10-09T16:39:41;5.63;;;2.40;;
13291;SDS011;6714;53.056;8.690;2023-10-09T16:42:24;5.13;;;2.53;;
13291;SDS011;6714;53.056;8.690;2023-10-09T16:45:08;4.70;;;2.27;;
13291;SDS011;6714;53.056;8.690;2023-10-09T16:47:57;3.30;;;2.23;;
13291;SDS011;6714;53.056;8.690;2023-10-09T16:50:44;3.63;;;2.10;;
13291;SDS011;6714;53.056;8.690;2023-10-09T16:53:27;3.93;;;2.67;;
13291;SDS011;6714;53.056;8.690;2023-10-09T16:56:10;4.30;;;2.47;;
13291;SDS011;6714;53.056;8.690;2023-10-09T16:58:53;5.40;;;2.40;;
13291;SDS011;6714;53.056;8.690;2023-10-09T17:01:35;3.47;;;2.47;;
13291;SDS011;6714;53.056;8.690;2023-10-09T17:04:21;3.50;;;2.50;;
13291;SDS011;6714;53.056;8.690;2023-10-09T17:07:06;4.13;;;2.53;;